sensor_id;sensor_type;location;lat;lon;timestamp;pressure;altitude;pressure_sealevel;temperature;humidity
11710;BME280;5911;51.036;6.972;2023-04-01T00:00:54;98651.78;;;11.78;100.00
11710;BME280;5911;51.036;6.972;2023-04-01T00:03:22;98650.59;;;11.81;100.00
11710;BME280;5911;51.036;6.972;2023-04-01T00:05:51;98640.22;;;11.79;100.00
11710;BME280;5911;51.036;6.972;2023-04-01T00:08:19;98646.13;;;11.81;100.00
11710;BME280;5911;51.036;6.972;2023-04-01T00:10:46;98645.13;;;11.82;100.00
11710;BME280;5911;51.036;6.972;2023-04-01T00:13:15;98653.25;;;11.81;100.00
11710;BME280;5911;51.036;6.972;2023-04-01T00:15:43;98654.06;;;11.81;100.00
11710;BME280;5911;51.036;6.972;2023-04-01T00:18:12;98640.22;;;11.79;100.00
11710;BME280;5911;51.036;6.972;2023-04-01T00:20:43;98650.72;;;11.87;100.00
11710;BME280;5911;51.036;6.972;2023-04-01T00:23:11;98635.03;;;11.86;100.00
11710;BME280;5911;51.036;6.972;2023-04-01T00:25:39;98640.59;;;11.91;100.00
11710;BME280;5911;51.036;6.972;2023-04-01T00:28:07;98630.22;;;11.89;100.00
11710;BME280;5911;51.036;6.972;2023-04-01T00:30:35;98645.50;;;11.94;100.00
11710;BME280;5911;51.036;6.972;2023-04-01T00:33:03;98642.13;;;11.85;100.00
11710;BME280;5911;51.036;6.972;2023-04-01T00:35:33;98626.56;;;11.90;100.00
11710;BME280;5911;51.036;6.972;2023-04-01T00:38:01;98637.13;;;11.90;100.00
11710;BME280;5911;51.036;6.972;2023-04-01T00:40:31;98653.00;;;11.90;100.00
11710;BME280;5911;51.036;6.972;2023-04-01T00:42:59;98624.19;;;11.95;100.00
11710;BME280;5911;51.036;6.972;2023-04-01T00:45:31;98636.75;;;11.93;100.00
11710;BME280;5911;51.036;6.972;2023-04-01T00:48:02;98633.50;;;11.91;100.00
11710;BME280;5911;51.036;6.972;2023-04-01T00:50:34;98626.09;;;11.87;100.00
11710;BME280;5911;51.036;6.972;2023-04-01T00:53:03;98628.22;;;11.91;100.00
11710;BME280;5911;51.036;6.972;2023-04-01T00:55:35;98628.56;;;11.88;100.00
11710;BME280;5911;51.036;6.972;2023-04-01T00:58:07;98649.34;;;11.91;100.00
11710;BME280;5911;51.036;6.972;2023-04-01T01:00:37;98625.28;;;11.86;100.00
11710;BME280;5911;51.036;6.972;2023-04-01T01:03:06;98631.84;;;11.90;100.00
11710;BME280;5911;51.036;6.972;2023-04-01T01:05:46;98620.91;;;11.93;100.00
11710;BME280;5911;51.036;6.972;2023-04-01T01:08:25;98635.09;;;11.92;100.00
11710;BME280;5911;51.036;6.972;2023-04-01T01:10:57;98634.03;;;11.87;100.00
11710;BME280;5911;51.036;6.972;2023-04-01T01:13:32;98634.03;;;11.87;100.00
11710;BME280;5911;51.036;6.972;2023-04-01T01:16:06;98631.28;;;11.80;100.00
11710;BME280;5911;51.036;6.972;2023-04-01T01:18:41;98624.38;;;11.79;100.00
11710;BME280;5911;51.036;6.972;2023-04-01T01:21:47;98629.28;;;11.82;100.00
11710;BME280;5911;51.036;6.972;2023-04-01T01:24:33;98626.00;;;11.80;100.00
11710;BME280;5911;51.036;6.972;2023-04-01T01:27:07;98628.72;;;11.72;100.00
11710;BME280;5911;51.036;6.972;2023-04-01T01:30:11;98617.78;;;11.75;100.00
11710;BME280;5911;51.036;6.972;2023-04-01T01:32:58;98617.50;;;11.70;100.00
11710;BME280;5911;51.036;6.972;2023-04-01T01:35:32;98621.16;;;11.69;100.00
11710;BME280;5911;51.036;6.972;2023-04-01T01:38:08;98612.06;;;11.72;100.00
11710;BME280;5911;51.036;6.972;2023-04-01T01:40:41;98604.84;;;11.66;100.00
11710;BME280;5911;51.036;6.972;2023-04-01T01:43:12;98614.50;;;11.73;100.00
11710;BME280;5911;51.036;6.972;2023-04-01T01:45:46;98604.78;;;11.74;100.00
11710;BME280;5911;51.036;6.972;2023-04-01T01:48:15;98612.34;;;11.77;100.00
11710;BME280;5911;51.036;6.972;2023-04-01T01:50:46;98612.34;;;11.77;100.00
11710;BME280;5911;51.036;6.972;2023-04-01T01:53:15;98611.69;;;11.75;100.00
11710;BME280;5911;51.036;6.972;2023-04-01T01:55:44;98574.78;;;11.52;100.00
11710;BME280;5911;51.036;6.972;2023-04-01T01:58:18;98611.41;;;11.70;100.00
11710;BME280;5911;51.036;6.972;2023-04-01T02:00:50;98626.78;;;11.66;100.00
11710;BME280;5911;51.036;6.972;2023-04-01T02:03:20;98614.31;;;11.60;100.00
11710;BME280;5911;51.036;6.972;2023-04-01T02:05:53;98613.59;;;11.66;100.00
11710;BME280;5911;51.036;6.972;2023-04-01T02:08:25;98630.53;;;11.57;100.00
11710;BME280;5911;51.036;6.972;2023-04-01T02:10:56;98605.19;;;11.48;100.00
11710;BME280;5911;51.036;6.972;2023-04-01T02:13:31;98617.38;;;11.49;100.00
11710;BME280;5911;51.036;6.972;2023-04-01T02:16:08;98618.94;;;11.43;100.00
11710;BME280;5911;51.036;6.972;2023-04-01T02:18:39;98611.47;;;11.47;100.00
11710;BME280;5911;51.036;6.972;2023-04-01T02:21:10;98614.03;;;11.40;100.00
11710;BME280;5911;51.036;6.972;2023-04-01T02:23:39;98622.41;;;11.44;100.00
11710;BME280;5911;51.036;6.972;2023-04-01T02:26:09;98613.91;;;11.34;100.00
11710;BME280;5911;51.036;6.972;2023-04-01T02:28:40;98599.16;;;11.24;100.00
11710;BME280;5911;51.036;6.972;2023-04-01T02:31:09;98608.19;;;11.30;100.00
11710;BME280;5911;51.036;6.972;2023-04-01T02:33:38;98603.44;;;11.25;100.00
11710;BME280;5911;51.036;6.972;2023-04-01T02:36:12;98606.06;;;11.25;100.00
11710;BME280;5911;51.036;6.972;2023-04-01T02:38:41;98611.25;;;11.19;100.00
11710;BME280;5911;51.036;6.972;2023-04-01T02:41:09;98607.44;;;11.21;100.00
11710;BME280;5911;51.036;6.972;2023-04-01T02:43:37;98606.31;;;11.16;100.00
11710;BME280;5911;51.036;6.972;2023-04-01T02:46:05;98610.75;;;11.15;100.00
11710;BME280;5911;51.036;6.972;2023-04-01T02:48:32;98603.50;;;11.17;100.00
11710;BME280;5911;51.036;6.972;2023-04-01T02:51:00;98603.16;;;11.20;100.00
11710;BME280;5911;51.036;6.972;2023-04-01T02:53:30;98608.78;;;11.17;100.00
11710;BME280;5911;51.036;6.972;2023-04-01T02:55:58;98610.75;;;11.15;100.00
11710;BME280;5911;51.036;6.972;2023-04-01T02:58:26;98605.31;;;11.17;100.00
11710;BME280;5911;51.036;6.972;2023-04-01T03:00:53;98608.13;;;11.15;100.00
11710;BME280;5911;51.036;6.972;2023-04-01T03:03:21;98584.56;;;10.99;100.00
11710;BME280;5911;51.036;6.972;2023-04-01T03:05:49;98603.31;;;11.19;100.00
11710;BME280;5911;51.036;6.972;2023-04-01T03:08:18;98610.75;;;11.15;100.00
11710;BME280;5911;51.036;6.972;2023-04-01T03:10:47;98620.31;;;11.16;100.00
11710;BME280;5911;51.036;6.972;2023-04-01T03:13:15;98615.69;;;11.18;100.00
11710;BME280;5911;51.036;6.972;2023-04-01T03:15:43;98611.50;;;11.09;100.00
11710;BME280;5911;51.036;6.972;2023-04-01T03:18:11;98617.25;;;11.13;100.00
11710;BME280;5911;51.036;6.972;2023-04-01T03:20:39;98612.66;;;11.07;100.00
11710;BME280;5911;51.036;6.972;2023-04-01T03:23:07;98618.75;;;11.07;100.00
11710;BME280;5911;51.036;6.972;2023-04-01T03:25:35;98617.41;;;11.11;100.00
11710;BME280;5911;51.036;6.972;2023-04-01T03:28:05;98618.75;;;11.07;100.00
11710;BME280;5911;51.036;6.972;2023-04-01T03:30:32;98616.59;;;11.11;100.00
11710;BME280;5911;51.036;6.972;2023-04-01T03:33:00;98618.06;;;11.13;100.00
11710;BME280;5911;51.036;6.972;2023-04-01T03:35:30;98632.25;;;11.12;100.00
11710;BME280;5911;51.036;6.972;2023-04-01T03:37:58;98637.06;;;11.09;100.00
11710;BME280;5911;51.036;6.972;2023-04-01T03:40:26;98618.59;;;11.09;100.00
11710;BME280;5911;51.036;6.972;2023-04-01T03:42:54;98630.97;;;11.08;100.00
11710;BME280;5911;51.036;6.972;2023-04-01T03:45:24;98621.88;;;11.11;100.00
11710;BME280;5911;51.036;6.972;2023-04-01T03:47:52;98627.16;;;11.11;100.00
11710;BME280;5911;51.036;6.972;2023-04-01T03:50:20;98636.25;;;11.08;100.00
11710;BME280;5911;51.036;6.972;2023-04-01T03:52:48;98633.91;;;11.13;100.00
11710;BME280;5911;51.036;6.972;2023-04-01T03:55:16;98640.16;;;11.12;100.00
11710;BME280;5911;51.036;6.972;2023-04-01T03:57:47;98643.16;;;11.09;100.00
11710;BME280;5911;51.036;6.972;2023-04-01T04:00:17;98638.72;;;11.10;100.00
11710;BME280;5911;51.036;6.972;2023-04-01T04:02:53;98634.59;;;11.07;100.00
11710;BME280;5911;51.036;6.972;2023-04-01T04:05:27;98638.88;;;11.08;100.00
11710;BME280;5911;51.036;6.972;2023-04-01T04:07:55;98632.84;;;11.00;100.00
11710;BME280;5911;51.036;6.972;2023-04-01T04:10:23;98645.84;;;11.01;100.00
11710;BME280;5911;51.036;6.972;2023-04-01T04:12:52;98640.22;;;11.04;100.00
11710;BME280;5911;51.036;6.972;2023-04-01T04:15:21;98644.50;;;11.05;100.00
11710;BME280;5911;51.036;6.972;2023-04-01T04:17:52;98642.84;;;11.04;100.00
11710;BME280;5911;51.036;6.972;2023-04-01T04:20:20;98646.31;;;11.05;100.00
11710;BME280;5911;51.036;6.972;2023-04-01T04:22:48;98645.50;;;11.04;100.00
11710;BME280;5911;51.036;6.972;2023-04-01T04:25:16;98655.53;;;11.09;100.00
11710;BME280;5911;51.036;6.972;2023-04-01T04:27:44;98648.44;;;11.09;100.00
11710;BME280;5911;51.036;6.972;2023-04-01T04:30:13;98643.16;;;11.09;100.00
11710;BME280;5911;51.036;6.972;2023-04-01T04:32:41;98640.69;;;11.08;100.00
11710;BME280;5911;51.036;6.972;2023-04-01T04:35:12;98638.88;;;11.08;100.00
11710;BME280;5911;51.036;6.972;2023-04-01T04:37:40;98650.44;;;11.07;100.00
11710;BME280;5911;51.036;6.972;2023-04-01T04:40:08;98635.94;;;11.03;100.00
11710;BME280;5911;51.036;6.972;2023-04-01T04:42:36;98638.88;;;11.08;100.00
11710;BME280;5911;51.036;6.972;2023-04-01T04:45:09;98643.16;;;11.09;100.00
11710;BME280;5911;51.036;6.972;2023-04-01T04:47:44;98638.22;;;11.06;100.00
11710;BME280;5911;51.036;6.972;2023-04-01T04:50:14;98638.94;;;11.00;100.00
11710;BME280;5911;51.036;6.972;2023-04-01T04:52:43;98649.59;;;11.07;100.00
11710;BME280;5911;51.036;6.972;2023-04-01T04:55:11;98644.50;;;11.05;100.00
11710;BME280;5911;51.036;6.972;2023-04-01T04:57:41;98652.06;;;11.08;100.00
11710;BME280;5911;51.036;6.972;2023-04-01T05:00:10;98648.78;;;11.06;100.00
11710;BME280;5911;51.036;6.972;2023-04-01T05:03:04;98653.25;;;11.06;100.00
11710;BME280;5911;51.036;6.972;2023-04-01T05:05:33;98657.03;;;11.03;100.00
11710;BME280;5911;51.036;6.972;2023-04-01T05:08:03;98634.41;;;10.86;100.00
11710;BME280;5911;51.036;6.972;2023-04-01T05:10:31;98658.59;;;10.98;100.00
11710;BME280;5911;51.036;6.972;2023-04-01T05:12:59;98669.66;;;10.93;100.00
11710;BME280;5911;51.036;6.972;2023-04-01T05:15:27;98660.59;;;10.96;100.00
11710;BME280;5911;51.036;6.972;2023-04-01T05:17:54;98670.47;;;10.93;100.00
11710;BME280;5911;51.036;6.972;2023-04-01T05:20:23;98666.84;;;10.95;100.00
11710;BME280;5911;51.036;6.972;2023-04-01T05:22:56;98668.84;;;10.92;100.00
11710;BME280;5911;51.036;6.972;2023-04-01T05:25:25;98674.13;;;10.92;100.00
11710;BME280;5911;51.036;6.972;2023-04-01T05:27:53;98672.28;;;10.93;100.00
11710;BME280;5911;51.036;6.972;2023-04-01T05:30:23;98661.78;;;10.85;100.00
11710;BME280;5911;51.036;6.972;2023-04-01T05:33:19;98680.56;;;10.90;100.00
11710;BME280;5911;51.036;6.972;2023-04-01T05:35:47;98663.44;;;10.86;100.00
11710;BME280;5911;51.036;6.972;2023-04-01T05:38:18;98670.47;;;10.93;100.00
11710;BME280;5911;51.036;6.972;2023-04-01T05:40:46;98672.59;;;10.98;100.00
11710;BME280;5911;51.036;6.972;2023-04-01T05:43:14;98688.47;;;10.90;100.00
11710;BME280;5911;51.036;6.972;2023-04-01T05:45:46;98685.16;;;10.96;100.00
11710;BME280;5911;51.036;6.972;2023-04-01T05:48:13;98687.13;;;10.94;100.00
11710;BME280;5911;51.036;6.972;2023-04-01T05:50:42;98682.19;;;10.91;100.00
11710;BME280;5911;51.036;6.972;2023-04-01T05:53:10;98681.03;;;10.93;100.00
11710;BME280;5911;51.036;6.972;2023-04-01T05:55:42;98687.13;;;10.94;100.00
11710;BME280;5911;51.036;6.972;2023-04-01T05:58:10;98682.19;;;10.91;100.00
11710;BME280;5911;51.036;6.972;2023-04-01T06:00:41;98683.50;;;10.95;100.00
11710;BME280;5911;51.036;6.972;2023-04-01T06:03:10;98687.31;;;10.92;100.00
11710;BME280;5911;51.036;6.972;2023-04-01T06:05:40;98698.50;;;10.95;100.00
11710;BME280;5911;51.036;6.972;2023-04-01T06:08:14;98693.41;;;10.93;100.00
11710;BME280;5911;51.036;6.972;2023-04-01T06:11:01;98697.69;;;10.94;100.00
11710;BME280;5911;51.036;6.972;2023-04-01T06:13:50;98702.31;;;10.92;100.00
11710;BME280;5911;51.036;6.972;2023-04-01T06:16:35;98699.03;;;10.90;100.00
11710;BME280;5911;51.036;6.972;2023-04-01T06:19:22;98709.06;;;10.95;100.00
11710;BME280;5911;51.036;6.972;2023-04-01T06:22:26;98710.06;;;10.93;100.00
11710;BME280;5911;51.036;6.972;2023-04-01T06:25:09;98708.88;;;10.96;100.00
11710;BME280;5911;51.036;6.972;2023-04-01T06:27:56;98709.88;;;10.95;100.00
11710;BME280;5911;51.036;6.972;2023-04-01T06:30:37;98710.53;;;10.97;100.00
11710;BME280;5911;51.036;6.972;2023-04-01T06:33:35;98720.53;;;11.02;100.00
11710;BME280;5911;51.036;6.972;2023-04-01T06:36:23;98711.81;;;11.01;100.00
11710;BME280;5911;51.036;6.972;2023-04-01T06:39:02;98709.63;;;11.05;100.00
11710;BME280;5911;51.036;6.972;2023-04-01T06:42:18;98712.09;;;11.06;100.00
11710;BME280;5911;51.036;6.972;2023-04-01T06:45:04;98718.03;;;11.08;100.00
11710;BME280;5911;51.036;6.972;2023-04-01T06:51:25;98717.69;;;11.11;100.00
11710;BME280;5911;51.036;6.972;2023-04-01T06:54:20;98719.34;;;11.12;100.00
11710;BME280;5911;51.036;6.972;2023-04-01T06:57:07;98723.78;;;11.12;100.00
11710;BME280;5911;51.036;6.972;2023-04-01T06:59:40;98713.63;;;11.01;100.00
11710;BME280;5911;51.036;6.972;2023-04-01T07:02:19;98725.94;;;11.08;100.00
11710;BME280;5911;51.036;6.972;2023-04-01T07:04:53;98703.31;;;10.91;100.00
11710;BME280;5911;51.036;6.972;2023-04-01T07:07:30;98736.00;;;11.13;100.00
11710;BME280;5911;51.036;6.972;2023-04-01T07:10:06;98739.13;;;11.08;100.00
11710;BME280;5911;51.036;6.972;2023-04-01T07:13:00;98735.50;;;11.09;100.00
11710;BME280;5911;51.036;6.972;2023-04-01T07:16:12;98739.31;;;11.07;100.00
11710;BME280;5911;51.036;6.972;2023-04-01T07:18:46;98741.66;;;11.02;100.00
11710;BME280;5911;51.036;6.972;2023-04-01T07:21:25;98743.78;;;11.06;100.00
11710;BME280;5911;51.036;6.972;2023-04-01T07:23:59;98754.31;;;11.06;100.00
11710;BME280;5911;51.036;6.972;2023-04-01T07:26:35;98747.41;;;11.05;100.00
11710;BME280;5911;51.036;6.972;2023-04-01T07:29:23;98756.31;;;11.04;100.00
11710;BME280;5911;51.036;6.972;2023-04-01T07:32:21;98755.97;;;11.07;100.00
11710;BME280;5911;51.036;6.972;2023-04-01T07:35:11;98759.94;;;11.03;100.00
11710;BME280;5911;51.036;6.972;2023-04-01T07:37:51;98757.47;;;11.02;100.00
11710;BME280;5911;51.036;6.972;2023-04-01T07:40:28;98756.13;;;11.06;100.00
11710;BME280;5911;51.036;6.972;2023-04-01T07:43:21;98748.41;;;11.04;100.00
11710;BME280;5911;51.036;6.972;2023-04-01T07:46:09;98768.16;;;11.08;100.00
11710;BME280;5911;51.036;6.972;2023-04-01T07:48:46;98778.72;;;11.08;100.00
11710;BME280;5911;51.036;6.972;2023-04-01T07:51:22;98772.97;;;11.05;100.00
11710;BME280;5911;51.036;6.972;2023-04-01T07:53:59;98783.19;;;11.08;100.00
11710;BME280;5911;51.036;6.972;2023-04-01T07:56:33;98779.31;;;11.18;100.00
11710;BME280;5911;51.036;6.972;2023-04-01T07:59:09;98785.94;;;11.14;100.00
11710;BME280;5911;51.036;6.972;2023-04-01T08:02:04;98786.28;;;11.11;100.00
11710;BME280;5911;51.036;6.972;2023-04-01T08:04:47;98792.22;;;11.13;100.00
11710;BME280;5911;51.036;6.972;2023-04-01T08:07:23;98788.63;;;11.06;100.00
11710;BME280;5911;51.036;6.972;2023-04-01T08:10:22;98794.69;;;11.15;100.00
11710;BME280;5911;51.036;6.972;2023-04-01T08:13:17;98799.50;;;11.11;100.00
11710;BME280;5911;51.036;6.972;2023-04-01T08:16:17;98804.13;;;11.09;100.00
11710;BME280;5911;51.036;6.972;2023-04-01T08:18:56;98811.72;;;11.04;100.00
11710;BME280;5911;51.036;6.972;2023-04-01T08:21:28;98818.16;;;11.02;100.00
11710;BME280;5911;51.036;6.972;2023-04-01T08:24:11;98814.69;;;11.01;100.00
11710;BME280;5911;51.036;6.972;2023-04-01T08:26:44;98815.06;;;10.98;100.00
11710;BME280;5911;51.036;6.972;2023-04-01T08:29:16;98816.22;;;10.96;100.00
11710;BME280;5911;51.036;6.972;2023-04-01T08:31:51;98821.84;;;10.92;100.00
11710;BME280;5911;51.036;6.972;2023-04-01T08:34:21;98834.03;;;10.93;100.00
11710;BME280;5911;51.036;6.972;2023-04-01T08:36:59;98830.75;;;10.91;100.00
11710;BME280;5911;51.036;6.972;2023-04-01T08:39:33;98823.59;;;11.00;100.00
11710;BME280;5911;51.036;6.972;2023-04-01T08:42:17;98827.25;;;10.99;100.00
11710;BME280;5911;51.036;6.972;2023-04-01T08:45:15;98833.97;;;11.02;100.00
11710;BME280;5911;51.036;6.972;2023-04-01T08:48:17;98837.44;;;11.02;100.00
11710;BME280;5911;51.036;6.972;2023-04-01T08:56:57;98841.56;;;11.05;100.00
11710;BME280;5911;51.036;6.972;2023-04-01T08:59:43;98863.16;;;11.08;100.00
11710;BME280;5911;51.036;6.972;2023-04-01T09:03:02;98868.59;;;11.07;100.00
11710;BME280;5911;51.036;6.972;2023-04-01T09:06:10;98860.19;;;11.03;100.00
11710;BME280;5911;51.036;6.972;2023-04-01T09:08:53;98867.94;;;11.05;100.00
11710;BME280;5911;51.036;6.972;2023-04-01T09:11:32;98867.13;;;11.04;100.00
11710;BME280;5911;51.036;6.972;2023-04-01T09:14:53;98871.06;;;11.08;100.00
11710;BME280;5911;51.036;6.972;2023-04-01T09:17:51;98874.09;;;10.97;100.00
11710;BME280;5911;51.036;6.972;2023-04-01T09:20:43;98873.88;;;11.07;100.00
11710;BME280;5911;51.036;6.972;2023-04-01T09:23:32;98884.09;;;11.02;100.00
11710;BME280;5911;51.036;6.972;2023-04-01T09:26:16;98891.19;;;11.09;100.00
11710;BME280;5911;51.036;6.972;2023-04-01T09:28:54;98883.94;;;11.11;100.00
11710;BME280;5911;51.036;6.972;2023-04-01T09:31:51;98883.06;;;11.19;100.00
11710;BME280;5911;51.036;6.972;2023-04-01T09:34:53;98896.41;;;11.25;100.00
11710;BME280;5911;51.036;6.972;2023-04-01T09:37:34;98892.59;;;11.28;100.00
11710;BME280;5911;51.036;6.972;2023-04-01T09:40:15;98899.69;;;11.27;100.00
11710;BME280;5911;51.036;6.972;2023-04-01T09:43:07;98899.69;;;11.27;100.00
11710;BME280;5911;51.036;6.972;2023-04-01T09:45:52;98890.97;;;11.19;100.00
11710;BME280;5911;51.036;6.972;2023-04-01T09:51:33;98909.28;;;11.20;100.00
11710;BME280;5911;51.036;6.972;2023-04-01T09:54:13;98917.03;;;11.22;100.00
11710;BME280;5911;51.036;6.972;2023-04-01T09:57:09;98931.53;;;11.18;100.00
11710;BME280;5911;51.036;6.972;2023-04-01T10:06:58;98942.94;;;11.18;100.00
11710;BME280;5911;51.036;6.972;2023-04-01T10:13:01;98948.88;;;11.20;100.00
11710;BME280;5911;51.036;6.972;2023-04-01T10:16:03;98942.63;;;11.13;100.00
11710;BME280;5911;51.036;6.972;2023-04-01T10:22:21;98947.22;;;11.19;100.00
11710;BME280;5911;51.036;6.972;2023-04-01T10:25:05;98942.59;;;11.21;100.00
11710;BME280;5911;51.036;6.972;2023-04-01T10:28:04;98956.13;;;11.26;100.00
11710;BME280;5911;51.036;6.972;2023-04-01T10:31:27;98946.22;;;11.20;100.00
11710;BME280;5911;51.036;6.972;2023-04-01T10:34:14;98950.44;;;11.38;100.00
11710;BME280;5911;51.036;6.972;2023-04-01T10:36:53;98964.97;;;11.42;100.00
11710;BME280;5911;51.036;6.972;2023-04-01T10:40:02;98963.31;;;11.41;100.00
11710;BME280;5911;51.036;6.972;2023-04-01T10:43:30;98972.22;;;11.40;100.00
11710;BME280;5911;51.036;6.972;2023-04-01T10:46:25;98966.06;;;11.47;100.00
11710;BME280;5911;51.036;6.972;2023-04-01T10:49:14;98967.13;;;11.38;100.00
11710;BME280;5911;51.036;6.972;2023-04-01T10:55:44;98962.34;;;11.34;100.00
11710;BME280;5911;51.036;6.972;2023-04-01T11:02:55;98963.28;;;11.49;100.00
11710;BME280;5911;51.036;6.972;2023-04-01T11:09:14;98973.53;;;11.44;100.00
11710;BME280;5911;51.036;6.972;2023-04-01T11:12:22;98977.03;;;11.36;100.00
11710;BME280;5911;51.036;6.972;2023-04-01T11:21:45;98981.47;;;11.36;100.00
11710;BME280;5911;51.036;6.972;2023-04-01T11:24:38;98987.41;;;11.38;100.00
11710;BME280;5911;51.036;6.972;2023-04-01T11:27:42;98989.88;;;11.39;100.00
11710;BME280;5911;51.036;6.972;2023-04-01T11:30:39;98989.72;;;11.41;100.00
11710;BME280;5911;51.036;6.972;2023-04-01T11:33:12;98996.31;;;11.45;100.00
11710;BME280;5911;51.036;6.972;2023-04-01T11:35:55;98999.56;;;11.47;100.00
11710;BME280;5911;51.036;6.972;2023-04-01T11:38:38;99003.22;;;11.46;100.00
11710;BME280;5911;51.036;6.972;2023-04-01T11:41:34;99012.16;;;11.45;100.00
11710;BME280;5911;51.036;6.972;2023-04-01T11:44:35;99007.47;;;11.55;100.00
11710;BME280;5911;51.036;6.972;2023-04-01T11:47:26;99007.81;;;11.52;100.00
11710;BME280;5911;51.036;6.972;2023-04-01T11:50:08;99004.53;;;11.50;100.00
11710;BME280;5911;51.036;6.972;2023-04-01T11:52:55;99006.63;;;11.62;100.00
11710;BME280;5911;51.036;6.972;2023-04-01T11:55:38;99016.66;;;11.67;100.00
11710;BME280;5911;51.036;6.972;2023-04-01T11:58:25;99041.28;;;11.76;100.00
11710;BME280;5911;51.036;6.972;2023-04-01T12:01:04;99031.84;;;11.81;100.00
11710;BME280;5911;51.036;6.972;2023-04-01T12:03:50;99033.50;;;11.74;100.00
11710;BME280;5911;51.036;6.972;2023-04-01T12:06:25;99028.03;;;11.84;100.00
11710;BME280;5911;51.036;6.972;2023-04-01T12:09:04;99037.75;;;11.91;100.00
11710;BME280;5911;51.036;6.972;2023-04-01T12:11:38;99039.38;;;11.92;100.00
11710;BME280;5911;51.036;6.972;2023-04-01T12:14:14;99049.91;;;12.01;100.00
11710;BME280;5911;51.036;6.972;2023-04-01T12:16:54;99042.00;;;11.92;100.00
11710;BME280;5911;51.036;6.972;2023-04-01T12:19:29;99047.94;;;11.94;100.00
11710;BME280;5911;51.036;6.972;2023-04-01T12:22:20;99042.63;;;12.03;100.00
11710;BME280;5911;51.036;6.972;2023-04-01T12:24:58;99045.06;;;12.12;100.00
11710;BME280;5911;51.036;6.972;2023-04-01T12:27:52;99058.06;;;12.22;100.00
11710;BME280;5911;51.036;6.972;2023-04-01T12:30:32;99048.66;;;12.19;100.00
11710;BME280;5911;51.036;6.972;2023-04-01T12:33:27;99071.66;;;12.11;100.00
11710;BME280;5911;51.036;6.972;2023-04-01T12:36:09;99064.03;;;12.16;100.00
11710;BME280;5911;51.036;6.972;2023-04-01T12:38:51;99072.97;;;12.15;100.00
11710;BME280;5911;51.036;6.972;2023-04-01T12:41:30;99078.59;;;12.12;100.00
11710;BME280;5911;51.036;6.972;2023-04-01T12:44:29;99090.50;;;12.08;100.00
11710;BME280;5911;51.036;6.972;2023-04-01T12:47:16;99071.16;;;12.07;100.00
11710;BME280;5911;51.036;6.972;2023-04-01T12:53:04;99065.09;;;12.07;100.00
11710;BME280;5911;51.036;6.972;2023-04-01T12:55:39;99079.63;;;12.03;100.00
11710;BME280;5911;51.036;6.972;2023-04-01T13:01:57;99096.50;;;11.93;100.00
11710;BME280;5911;51.036;6.972;2023-04-01T13:07:34;99082.28;;;11.94;100.00
11710;BME280;5911;51.036;6.972;2023-04-01T13:10:13;99098.69;;;11.90;100.00
11710;BME280;5911;51.036;6.972;2023-04-01T13:13:04;99086.09;;;11.92;100.00
11710;BME280;5911;51.036;6.972;2023-04-01T13:15:41;99103.09;;;11.97;100.00
11710;BME280;5911;51.036;6.972;2023-04-01T13:18:18;99102.63;;;11.94;100.00
11710;BME280;5911;51.036;6.972;2023-04-01T13:20:54;99098.97;;;11.95;100.00
11710;BME280;5911;51.036;6.972;2023-04-01T13:23:47;99101.78;;;11.93;100.00
11710;BME280;5911;51.036;6.972;2023-04-01T13:26:24;99109.88;;;11.92;100.00
11710;BME280;5911;51.036;6.972;2023-04-01T13:28:59;99108.09;;;11.84;100.00
11710;BME280;5911;51.036;6.972;2023-04-01T13:31:40;99115.72;;;11.79;100.00
11710;BME280;5911;51.036;6.972;2023-04-01T13:34:21;99112.72;;;11.82;100.00
11710;BME280;5911;51.036;6.972;2023-04-01T13:37:02;99111.75;;;11.83;100.00
11710;BME280;5911;51.036;6.972;2023-04-01T13:39:45;99115.06;;;11.77;100.00
11710;BME280;5911;51.036;6.972;2023-04-01T13:42:21;99124.00;;;11.76;100.00
11710;BME280;5911;51.036;6.972;2023-04-01T13:44:56;99124.78;;;11.77;100.00
11710;BME280;5911;51.036;6.972;2023-04-01T13:50:39;99120.66;;;11.74;100.00
11710;BME280;5911;51.036;6.972;2023-04-01T13:53:51;99125.28;;;11.80;100.00
11710;BME280;5911;51.036;6.972;2023-04-01T13:56:42;99135.38;;;11.77;100.00
11710;BME280;5911;51.036;6.972;2023-04-01T13:59:32;99129.59;;;11.81;100.00
11710;BME280;5911;51.036;6.972;2023-04-01T14:02:19;99138.31;;;11.90;100.00
11710;BME280;5911;51.036;6.972;2023-04-01T14:05:07;99137.16;;;11.84;100.00
11710;BME280;5911;51.036;6.972;2023-04-01T14:07:51;99145.59;;;11.88;100.00
11710;BME280;5911;51.036;6.972;2023-04-01T14:10:30;99148.06;;;11.89;100.00
11710;BME280;5911;51.036;6.972;2023-04-01T14:13:13;99141.78;;;11.82;100.00
11710;BME280;5911;51.036;6.972;2023-04-01T14:16:00;99158.63;;;11.81;100.00
11710;BME280;5911;51.036;6.972;2023-04-01T14:21:52;99157.81;;;11.89;100.00
11710;BME280;5911;51.036;6.972;2023-04-01T14:24:36;99165.25;;;11.85;100.00
11710;BME280;5911;51.036;6.972;2023-04-01T14:27:23;99164.25;;;11.86;100.00
11710;BME280;5911;51.036;6.972;2023-04-01T14:30:07;99165.91;;;11.79;100.00
11710;BME280;5911;51.036;6.972;2023-04-01T14:32:49;99164.91;;;11.80;100.00
11710;BME280;5911;51.036;6.972;2023-04-01T14:35:29;99171.69;;;11.75;100.00
11710;BME280;5911;51.036;6.972;2023-04-01T14:38:12;99174.19;;;11.76;100.00
11710;BME280;5911;51.036;6.972;2023-04-01T14:40:56;99168.06;;;11.84;100.00
11710;BME280;5911;51.036;6.972;2023-04-01T14:43:53;99183.41;;;11.88;100.00
11710;BME280;5911;51.036;6.972;2023-04-01T14:49:32;99174.31;;;11.83;100.00
11710;BME280;5911;51.036;6.972;2023-04-01T14:52:05;99164.28;;;11.54;100.00
11710;BME280;5911;51.036;6.972;2023-04-01T14:54:39;99186.38;;;11.77;100.00
11710;BME280;5911;51.036;6.972;2023-04-01T14:57:11;99187.69;;;11.81;100.00
11710;BME280;5911;51.036;6.972;2023-04-01T14:59:41;99188.03;;;11.78;100.00
11710;BME280;5911;51.036;6.972;2023-04-01T15:02:33;99189.34;;;11.82;100.00
11710;BME280;5911;51.036;6.972;2023-04-01T15:05:15;99195.78;;;11.80;100.00